Balikesir, Turkey
Current Conditions -  °F | °C
As of 6:50 PM on Friday 31 Oct 2014 (Local Time) from LTBF Reporting Station
Broken Clouds Broken Clouds  
Wind Chill: 50°   Ceiling: 10000
Heat Index: 50°   Visibility: 6mi
Dew Point: 43°   Wind: 12mph
Humidity: 76%   Direction: 360°N
Pressure: 30.12"   Gusts: NA
Location:  39.65°N, 27.88°E
Report Text: LTBF 311550Z 36010KT 9999 SCT015 SCT035 BKN100 10/06 Q1020 NOSIG
Loading
Personal Weather Stations






























Interactive Weather Map
Tropical Storm Tracking
New forecast layout! Learn more

10-Day Weather Forecast

Advertisements
Track Severe Weather on mobile